createdAt,value
2019-03-30T00:01:01.316Z,9.10
2019-03-30T00:03:29.711Z,9.53
2019-03-30T00:05:58.183Z,9.27
2019-03-30T00:08:26.733Z,9.27
2019-03-30T00:10:55.117Z,9.07
2019-03-30T00:13:23.515Z,8.30
2019-03-30T00:15:51.916Z,8.93
2019-03-30T00:18:20.309Z,8.67
2019-03-30T00:20:48.725Z,9.43
2019-03-30T00:23:17.133Z,8.80
2019-03-30T00:25:45.550Z,9.00
2019-03-30T00:28:13.940Z,8.43
2019-03-30T00:30:42.366Z,8.33
2019-03-30T00:33:10.772Z,9.20
2019-03-30T00:35:39.188Z,8.20
2019-03-30T00:38:07.582Z,8.67
2019-03-30T00:40:36.000Z,8.90
2019-03-30T00:43:04.400Z,8.57
2019-03-30T00:45:32.842Z,8.10
2019-03-30T00:48:01.235Z,7.93
2019-03-30T00:50:29.659Z,8.57
2019-03-30T00:52:58.060Z,7.60
2019-03-30T00:55:26.553Z,7.87
2019-03-30T00:57:54.956Z,8.23
2019-03-30T01:00:23.382Z,7.70
2019-03-30T01:02:51.791Z,8.30
2019-03-30T01:05:20.202Z,7.67
2019-03-30T01:07:48.647Z,7.50
2019-03-30T01:10:17.162Z,7.63
2019-03-30T01:12:45.602Z,7.87
2019-03-30T01:15:14.374Z,8.07
2019-03-30T01:17:42.780Z,8.57
2019-03-30T01:20:11.188Z,8.80
2019-03-30T01:22:39.570Z,8.33
2019-03-30T01:25:08.440Z,8.10
2019-03-30T01:27:36.829Z,8.10
2019-03-30T01:30:06.199Z,8.47
2019-03-30T01:32:35.094Z,8.03
2019-03-30T01:35:04.398Z,10.60
2019-03-30T01:37:32.850Z,8.17
2019-03-30T01:40:01.241Z,8.97
2019-03-30T01:42:29.683Z,8.70
2019-03-30T01:44:58.085Z,9.07
2019-03-30T01:47:26.515Z,9.30
2019-03-30T01:49:55.011Z,8.67
2019-03-30T01:52:23.443Z,9.13
2019-03-30T01:54:51.841Z,8.53
2019-03-30T01:57:20.354Z,9.23
2019-03-30T01:59:48.850Z,8.63
2019-03-30T02:02:17.353Z,9.13
2019-03-30T02:04:45.756Z,8.67
2019-03-30T02:07:14.276Z,9.30
2019-03-30T02:09:42.821Z,9.40
2019-03-30T02:12:11.234Z,9.23
2019-03-30T02:14:39.641Z,8.83
2019-03-30T02:17:08.040Z,9.97
2019-03-30T02:19:36.448Z,9.53
2019-03-30T02:22:04.849Z,9.23
2019-03-30T02:24:33.243Z,9.27
2019-03-30T02:27:01.680Z,9.10
2019-03-30T02:29:30.074Z,9.37
2019-03-30T02:31:58.478Z,9.00
2019-03-30T02:34:26.874Z,8.93
2019-03-30T02:36:55.268Z,8.83
2019-03-30T02:39:23.674Z,8.93
2019-03-30T02:41:52.161Z,8.93
2019-03-30T02:44:20.639Z,9.33
2019-03-30T02:46:49.034Z,8.50
2019-03-30T02:49:17.433Z,9.03
2019-03-30T02:51:45.905Z,8.57
2019-03-30T02:54:14.291Z,8.53
2019-03-30T02:56:42.758Z,7.87
2019-03-30T02:59:11.158Z,8.67
2019-03-30T03:01:39.578Z,8.17
2019-03-30T03:04:07.973Z,8.43
2019-03-30T03:06:36.487Z,8.67
2019-03-30T03:09:07.485Z,8.27
2019-03-30T03:11:36.077Z,7.90
2019-03-30T03:14:04.479Z,8.60
2019-03-30T03:16:32.921Z,8.33
2019-03-30T03:19:01.339Z,8.00
2019-03-30T03:21:29.785Z,8.23
2019-03-30T03:23:58.177Z,7.43
2019-03-30T03:26:26.689Z,7.80
2019-03-30T03:28:55.089Z,8.33
2019-03-30T03:31:23.546Z,7.50
2019-03-30T03:33:51.995Z,8.00
2019-03-30T03:36:20.554Z,8.03
2019-03-30T03:38:48.948Z,8.03
2019-03-30T03:41:17.348Z,7.80
2019-03-30T03:43:46.746Z,8.03
2019-03-30T03:46:15.135Z,7.93
2019-03-30T03:48:43.530Z,8.27
2019-03-30T03:51:25.580Z,7.90
2019-03-30T03:53:42.071Z,7.80
2019-03-30T03:56:10.465Z,7.97
2019-03-30T03:58:38.861Z,8.47
2019-03-30T04:01:07.374Z,7.47
2019-03-30T04:03:35.794Z,7.80
2019-03-30T04:06:07.010Z,7.40
2019-03-30T04:08:35.841Z,7.70
2019-03-30T04:11:04.411Z,7.80
2019-03-30T04:13:32.919Z,7.47
2019-03-30T04:16:01.369Z,7.90
2019-03-30T04:18:29.762Z,7.60
2019-03-30T04:20:58.159Z,7.13
2019-03-30T04:23:26.669Z,7.17
2019-03-30T04:25:55.055Z,7.73
2019-03-30T04:28:23.470Z,7.07
2019-03-30T04:30:51.855Z,6.93
2019-03-30T04:33:20.365Z,7.03
2019-03-30T04:35:48.758Z,7.23
2019-03-30T04:38:17.223Z,7.60
2019-03-30T04:40:45.725Z,6.70
2019-03-30T04:43:14.141Z,7.37
2019-03-30T04:45:42.644Z,6.90
2019-03-30T04:48:11.166Z,7.30
2019-03-30T04:50:39.559Z,7.43
2019-03-30T04:53:07.990Z,7.03
2019-03-30T04:55:36.384Z,7.57
2019-03-30T04:58:04.815Z,7.30
2019-03-30T05:00:33.213Z,7.20
2019-03-30T05:03:01.629Z,7.07
2019-03-30T05:05:30.021Z,7.30
2019-03-30T05:07:58.437Z,8.00
2019-03-30T05:10:26.830Z,7.10
2019-03-30T05:12:55.309Z,6.93
2019-03-30T05:15:23.703Z,7.63
2019-03-30T05:17:52.135Z,7.80
2019-03-30T05:20:20.536Z,7.23
2019-03-30T05:22:51.288Z,7.27
2019-03-30T05:25:19.068Z,7.60
2019-03-30T05:27:47.465Z,7.07
2019-03-30T05:30:15.855Z,7.20
2019-03-30T05:32:44.261Z,7.30
2019-03-30T05:35:12.674Z,7.80
2019-03-30T05:37:41.067Z,6.67
2019-03-30T05:40:09.535Z,6.07
2019-03-30T05:42:37.929Z,6.83
2019-03-30T05:45:07.949Z,6.50
2019-03-30T05:47:36.386Z,7.30
2019-03-30T05:50:06.432Z,7.10
2019-03-30T05:52:35.722Z,7.00
2019-03-30T05:55:04.672Z,6.53
2019-03-30T05:57:33.088Z,7.20
2019-03-30T06:00:01.567Z,6.83
2019-03-30T06:02:29.953Z,6.70
2019-03-30T06:04:58.855Z,6.60
2019-03-30T06:07:27.326Z,6.73
2019-03-30T06:09:55.721Z,6.93
2019-03-30T06:12:24.183Z,6.87
2019-03-30T06:14:52.577Z,6.60
2019-03-30T06:17:20.972Z,6.83
2019-03-30T06:19:49.467Z,6.93
2019-03-30T06:22:17.854Z,7.13
2019-03-30T06:24:46.326Z,7.70
2019-03-30T06:27:14.763Z,6.83
2019-03-30T06:29:43.156Z,6.80
2019-03-30T06:32:11.547Z,6.10
2019-03-30T06:34:39.949Z,7.10
2019-03-30T06:37:08.344Z,6.47
2019-03-30T06:39:37.158Z,7.20
2019-03-30T06:42:05.691Z,10.17
2019-03-30T06:44:34.110Z,11.30
2019-03-30T06:47:02.517Z,12.43
2019-03-30T06:49:30.923Z,13.17
2019-03-30T06:51:59.324Z,13.47
2019-03-30T06:54:27.733Z,13.33
2019-03-30T06:56:56.136Z,14.73
2019-03-30T06:59:24.550Z,14.43
2019-03-30T07:01:52.948Z,14.50
2019-03-30T07:04:21.352Z,14.77
2019-03-30T07:06:49.749Z,14.93
2019-03-30T07:09:19.213Z,15.80
2019-03-30T07:11:47.696Z,16.73
2019-03-30T07:14:16.179Z,16.47
2019-03-30T07:16:44.609Z,16.70
2019-03-30T07:19:13.024Z,16.30
2019-03-30T07:21:41.419Z,16.23
2019-03-30T07:24:09.857Z,16.00
2019-03-30T07:26:38.254Z,15.77
2019-03-30T07:29:06.728Z,16.20
2019-03-30T07:31:35.126Z,17.47
2019-03-30T07:34:03.570Z,16.73
2019-03-30T07:36:32.045Z,16.37
2019-03-30T07:39:00.484Z,16.30
2019-03-30T07:41:28.892Z,16.63
2019-03-30T07:43:57.321Z,16.27
2019-03-30T07:46:25.724Z,15.90
2019-03-30T07:48:54.174Z,16.47
2019-03-30T07:51:22.561Z,16.27
2019-03-30T07:53:50.989Z,15.73
2019-03-30T07:56:19.470Z,16.27
2019-03-30T07:58:47.912Z,16.50
2019-03-30T08:01:16.324Z,16.50
2019-03-30T08:03:44.845Z,16.13
2019-03-30T08:06:13.247Z,16.63
2019-03-30T08:08:41.664Z,15.83
2019-03-30T08:11:10.066Z,15.77
2019-03-30T08:13:38.465Z,16.33
2019-03-30T08:16:06.881Z,16.40
2019-03-30T08:18:35.279Z,15.67
2019-03-30T08:21:03.682Z,16.30
2019-03-30T08:23:40.307Z,16.57
2019-03-30T08:26:02.217Z,16.67
2019-03-30T08:28:30.629Z,15.80
2019-03-30T08:30:59.834Z,15.83
2019-03-30T08:33:28.234Z,15.83
2019-03-30T08:35:57.818Z,15.37
2019-03-30T08:38:26.215Z,14.83
2019-03-30T08:40:54.625Z,13.83
2019-03-30T08:43:23.021Z,13.73
2019-03-30T08:45:51.419Z,13.33
2019-03-30T08:48:19.825Z,13.20
2019-03-30T08:50:48.239Z,13.07
2019-03-30T08:53:16.650Z,12.90
2019-03-30T08:55:45.065Z,11.77
2019-03-30T08:58:13.470Z,11.80
2019-03-30T09:00:42.612Z,11.47
2019-03-30T09:03:11.019Z,11.03
2019-03-30T09:05:39.431Z,11.00
2019-03-30T09:08:07.829Z,10.70
2019-03-30T09:10:36.253Z,9.70
2019-03-30T09:13:04.733Z,10.57
2019-03-30T09:15:36.759Z,10.87
2019-03-30T09:18:05.331Z,11.60
2019-03-30T09:20:33.805Z,11.53
2019-03-30T09:23:02.207Z,12.50
2019-03-30T09:25:30.613Z,11.87
2019-03-30T09:27:59.018Z,12.20
2019-03-30T09:30:27.416Z,12.20
2019-03-30T09:32:55.822Z,12.63
2019-03-30T09:35:24.227Z,12.03
2019-03-30T09:37:52.628Z,12.23
2019-03-30T09:40:21.087Z,11.23
2019-03-30T09:42:49.493Z,11.37
2019-03-30T09:45:17.890Z,11.33
2019-03-30T09:47:46.375Z,11.23
2019-03-30T09:50:14.807Z,11.17
2019-03-30T09:52:43.205Z,10.87
2019-03-30T09:55:11.725Z,10.90
2019-03-30T09:57:40.128Z,11.83
2019-03-30T10:00:08.644Z,11.67
2019-03-30T10:02:37.115Z,11.30
2019-03-30T10:05:05.635Z,11.30
2019-03-30T10:07:34.039Z,10.00
2019-03-30T10:10:02.488Z,10.77
2019-03-30T10:12:30.948Z,10.13
2019-03-30T10:14:59.401Z,9.67
2019-03-30T10:17:27.900Z,10.07
2019-03-30T10:20:04.291Z,11.07
2019-03-30T10:22:26.565Z,11.20
2019-03-30T10:24:58.298Z,10.73
2019-03-30T10:27:25.151Z,10.50
2019-03-30T10:29:53.569Z,11.23
2019-03-30T10:32:22.004Z,10.80
2019-03-30T10:34:50.434Z,10.20
2019-03-30T10:37:18.914Z,9.07
2019-03-30T10:39:47.315Z,9.83
2019-03-30T10:42:15.726Z,10.60
2019-03-30T10:44:44.132Z,10.83
2019-03-30T10:47:12.527Z,9.50
2019-03-30T10:49:40.968Z,9.43
2019-03-30T10:52:09.426Z,9.53
2019-03-30T10:54:51.726Z,8.63
2019-03-30T10:57:07.959Z,9.73
2019-03-30T10:59:36.354Z,8.70
2019-03-30T11:02:06.328Z,9.60
2019-03-30T11:04:37.483Z,9.00
2019-03-30T11:07:04.926Z,9.53
2019-03-30T11:09:33.338Z,10.90
2019-03-30T11:12:01.741Z,11.07
2019-03-30T11:14:30.133Z,10.40
2019-03-30T11:16:58.582Z,10.90
2019-03-30T11:19:26.976Z,9.13
2019-03-30T11:21:55.415Z,10.57
2019-03-30T11:24:23.839Z,9.70
2019-03-30T11:26:52.271Z,10.60
2019-03-30T11:29:20.666Z,9.77
2019-03-30T11:31:49.154Z,10.47
2019-03-30T11:34:17.573Z,9.50
2019-03-30T11:36:46.082Z,9.40
2019-03-30T11:39:14.486Z,9.37
2019-03-30T11:41:42.998Z,10.10
2019-03-30T11:44:11.458Z,9.37
2019-03-30T11:46:39.872Z,9.30
2019-03-30T11:49:08.277Z,10.50
2019-03-30T11:51:36.676Z,9.10
2019-03-30T11:54:05.499Z,9.83
2019-03-30T11:56:34.034Z,9.50
2019-03-30T11:59:02.482Z,9.37
2019-03-30T12:01:30.933Z,8.70
2019-03-30T12:03:59.338Z,8.93
2019-03-30T12:06:27.751Z,9.07
2019-03-30T12:08:56.164Z,9.57
2019-03-30T12:11:24.560Z,8.90
2019-03-30T12:13:53.068Z,9.70
2019-03-30T12:16:21.502Z,9.27
2019-03-30T12:18:49.919Z,9.83
2019-03-30T12:21:18.322Z,9.20
2019-03-30T12:23:46.709Z,9.63
2019-03-30T12:26:15.105Z,10.10
2019-03-30T12:28:43.577Z,11.07
2019-03-30T12:31:11.976Z,12.70
2019-03-30T12:33:40.493Z,12.83
2019-03-30T12:36:09.017Z,13.07
2019-03-30T12:38:37.422Z,14.80
2019-03-30T12:41:05.858Z,15.27
2019-03-30T12:43:34.259Z,17.30
2019-03-30T12:46:02.685Z,17.23
2019-03-30T12:48:31.083Z,18.30
2019-03-30T12:50:59.531Z,19.20
2019-03-30T12:53:27.956Z,20.57
2019-03-30T12:55:56.354Z,22.13
2019-03-30T12:58:24.749Z,21.43
2019-03-30T13:00:53.195Z,22.30
2019-03-30T13:03:21.640Z,23.57
2019-03-30T13:05:50.032Z,24.30
2019-03-30T13:08:18.433Z,23.40
2019-03-30T13:10:46.894Z,26.33
2019-03-30T13:13:15.392Z,25.47
2019-03-30T13:15:43.790Z,28.57
2019-03-30T13:18:12.192Z,28.20
2019-03-30T13:20:40.667Z,28.23
2019-03-30T13:23:10.646Z,29.03
2019-03-30T13:25:39.040Z,28.57
2019-03-30T13:28:07.445Z,28.37
2019-03-30T13:30:35.930Z,29.17
2019-03-30T13:33:04.328Z,29.20
2019-03-30T13:35:32.725Z,28.93
2019-03-30T13:38:01.187Z,29.40
2019-03-30T13:40:29.593Z,28.90
2019-03-30T13:42:57.998Z,28.07
2019-03-30T13:45:26.439Z,28.53
2019-03-30T13:47:55.231Z,27.87
2019-03-30T13:50:23.647Z,27.57
2019-03-30T13:52:52.094Z,26.33
2019-03-30T13:55:20.497Z,26.17
2019-03-30T13:57:48.990Z,26.93
2019-03-30T14:00:17.393Z,26.87
2019-03-30T14:02:45.818Z,26.17
2019-03-30T14:05:14.217Z,26.90
2019-03-30T14:07:42.663Z,25.50
2019-03-30T14:10:11.128Z,26.73
2019-03-30T14:12:39.565Z,25.70
2019-03-30T14:15:09.430Z,26.27
2019-03-30T14:17:38.214Z,24.00
2019-03-30T14:20:07.649Z,24.00
2019-03-30T14:22:36.615Z,25.57
2019-03-30T14:25:06.744Z,23.97
2019-03-30T14:27:35.165Z,24.17
2019-03-30T14:30:03.636Z,23.17
2019-03-30T14:32:32.053Z,23.30
2019-03-30T14:35:00.463Z,23.63
2019-03-30T14:37:28.888Z,23.27
2019-03-30T14:39:57.281Z,23.50
2019-03-30T14:42:25.715Z,23.30
2019-03-30T14:44:54.114Z,22.00
2019-03-30T14:47:22.599Z,22.43
2019-03-30T14:49:51.063Z,22.57
2019-03-30T14:52:19.497Z,22.60
2019-03-30T14:54:53.038Z,21.47
2019-03-30T14:57:18.082Z,21.97
2019-03-30T14:59:46.547Z,20.97
2019-03-30T15:02:15.026Z,21.13
2019-03-30T15:04:43.418Z,21.10
2019-03-30T15:07:11.891Z,21.30
2019-03-30T15:09:40.293Z,23.13
2019-03-30T15:12:08.687Z,27.40
2019-03-30T15:14:37.085Z,23.40
2019-03-30T15:17:05.518Z,23.10
2019-03-30T15:19:33.927Z,23.00
2019-03-30T15:22:02.364Z,22.80
2019-03-30T15:24:30.764Z,23.33
2019-03-30T15:27:00.485Z,23.37
2019-03-30T15:29:29.141Z,22.50
2019-03-30T15:31:57.602Z,24.87
2019-03-30T15:34:25.996Z,24.33
2019-03-30T15:36:54.389Z,23.77
2019-03-30T15:39:22.813Z,25.37
2019-03-30T15:41:51.186Z,23.50
2019-03-30T15:44:19.608Z,22.03
2019-03-30T15:46:48.029Z,23.07
2019-03-30T15:49:17.228Z,24.07
2019-03-30T15:51:45.626Z,22.63
2019-03-30T15:54:14.041Z,18.53
2019-03-30T15:56:42.444Z,24.40
2019-03-30T15:59:10.842Z,22.37
2019-03-30T16:01:39.246Z,21.73
2019-03-30T16:04:07.644Z,26.10
2019-03-30T16:06:36.039Z,23.43
2019-03-30T16:09:06.184Z,23.90
2019-03-30T16:11:34.611Z,22.03
2019-03-30T16:14:03.023Z,22.27
2019-03-30T16:16:31.558Z,23.30
2019-03-30T16:18:59.982Z,22.10
2019-03-30T16:21:28.379Z,22.50
2019-03-30T16:23:56.787Z,23.97
2019-03-30T16:26:25.194Z,21.70
2019-03-30T16:28:53.586Z,21.17
2019-03-30T16:31:22.051Z,17.17
2019-03-30T16:33:50.460Z,19.20
2019-03-30T16:36:18.904Z,18.43
2019-03-30T16:38:47.340Z,17.17
2019-03-30T16:41:15.739Z,19.63
2019-03-30T16:43:44.173Z,16.90
2019-03-30T16:46:12.578Z,16.20
2019-03-30T16:48:41.010Z,16.53
2019-03-30T16:51:09.415Z,14.97
2019-03-30T16:53:39.304Z,15.10
2019-03-30T16:56:07.695Z,14.00
2019-03-30T16:58:36.195Z,16.67
2019-03-30T17:01:04.662Z,14.77
2019-03-30T17:03:33.169Z,13.90
2019-03-30T17:06:01.559Z,14.73
2019-03-30T17:08:29.990Z,17.13
2019-03-30T17:10:58.453Z,17.43
2019-03-30T17:13:26.973Z,15.17
2019-03-30T17:15:58.403Z,14.03
2019-03-30T17:18:25.676Z,15.33
2019-03-30T17:20:54.097Z,16.33
2019-03-30T17:23:22.538Z,13.87
2019-03-30T17:25:50.978Z,14.97
2019-03-30T17:28:19.414Z,14.83
2019-03-30T17:30:47.819Z,15.77
2019-03-30T17:33:16.354Z,14.47
2019-03-30T17:35:44.801Z,16.23
2019-03-30T17:38:13.416Z,17.30
2019-03-30T17:40:41.857Z,15.63
2019-03-30T17:43:10.249Z,16.00
2019-03-30T17:45:38.643Z,15.00
2019-03-30T17:48:07.101Z,15.53
2019-03-30T17:50:35.505Z,13.33
2019-03-30T17:53:03.899Z,14.57
2019-03-30T17:55:33.982Z,16.53
2019-03-30T17:58:12.969Z,17.17
2019-03-30T18:00:33.132Z,17.73
2019-03-30T18:03:01.556Z,16.87
2019-03-30T18:05:33.229Z,18.07
2019-03-30T18:08:01.785Z,18.60
2019-03-30T18:10:30.393Z,17.40
2019-03-30T18:12:58.791Z,17.40
2019-03-30T18:15:27.198Z,18.10
2019-03-30T18:17:56.826Z,18.20
2019-03-30T18:20:25.481Z,18.37
2019-03-30T18:22:53.898Z,21.40
2019-03-30T18:25:22.295Z,22.03
2019-03-30T18:27:50.697Z,22.70
2019-03-30T18:30:22.361Z,23.10
2019-03-30T18:32:53.352Z,23.67
2019-03-30T18:35:20.975Z,24.67
2019-03-30T18:37:49.364Z,24.83
2019-03-30T18:40:32.000Z,26.17
2019-03-30T18:43:01.019Z,28.50
2019-03-30T18:45:29.498Z,29.53
2019-03-30T18:48:12.465Z,29.40
2019-03-30T18:50:42.588Z,32.27
2019-03-30T18:53:11.057Z,31.10
2019-03-30T18:55:39.456Z,35.07
2019-03-30T18:58:07.865Z,34.23
2019-03-30T19:00:36.268Z,33.93
2019-03-30T19:03:05.338Z,37.17
2019-03-30T19:05:33.738Z,38.10
2019-03-30T19:08:04.315Z,41.33
2019-03-30T19:10:33.574Z,44.37
2019-03-30T19:13:02.072Z,43.40
2019-03-30T19:15:30.486Z,47.20
2019-03-30T19:17:58.880Z,51.33
2019-03-30T19:20:27.272Z,58.03
2019-03-30T19:22:55.673Z,58.00
2019-03-30T19:25:24.286Z,58.97
2019-03-30T19:27:52.953Z,57.83
2019-03-30T19:30:21.384Z,60.13
2019-03-30T19:32:49.795Z,65.30
2019-03-30T19:35:18.217Z,64.57
2019-03-30T19:37:46.618Z,63.57
2019-03-30T19:40:17.487Z,64.40
2019-03-30T19:42:46.655Z,63.47
2019-03-30T19:45:16.166Z,61.37
2019-03-30T19:47:44.561Z,62.17
2019-03-30T19:50:13.075Z,68.40
2019-03-30T19:52:41.539Z,66.57
2019-03-30T19:55:09.993Z,66.50
2019-03-30T19:57:39.718Z,68.93
2019-03-30T20:00:12.586Z,67.33
2019-03-30T20:02:41.094Z,64.93
2019-03-30T20:05:09.512Z,58.40
2019-03-30T20:07:37.927Z,57.23
2019-03-30T20:10:08.058Z,61.40
2019-03-30T20:12:38.134Z,57.10
2019-03-30T20:15:06.859Z,56.47
2019-03-30T20:17:36.936Z,56.93
2019-03-30T20:20:05.816Z,59.73
2019-03-30T20:22:34.204Z,53.60
2019-03-30T20:25:02.608Z,62.43
2019-03-30T20:27:31.000Z,66.23
2019-03-30T20:29:59.565Z,59.60
2019-03-30T20:32:27.973Z,65.10
2019-03-30T20:34:56.370Z,67.50
2019-03-30T20:37:24.768Z,60.90
2019-03-30T20:39:53.218Z,62.00
2019-03-30T20:42:21.609Z,60.30
2019-03-30T20:44:50.055Z,56.80
2019-03-30T20:47:18.471Z,60.23
2019-03-30T20:49:46.880Z,55.43
2019-03-30T20:52:15.274Z,56.03
2019-03-30T20:54:43.676Z,57.97
2019-03-30T20:57:12.170Z,57.43
2019-03-30T20:59:40.671Z,61.40
2019-03-30T21:02:11.750Z,60.03
2019-03-30T21:04:40.214Z,57.93
2019-03-30T21:07:08.688Z,56.30
2019-03-30T21:09:37.131Z,58.03
2019-03-30T21:12:05.593Z,51.80
2019-03-30T21:14:33.816Z,51.07
2019-03-30T21:17:02.216Z,51.83
2019-03-30T21:19:30.614Z,49.43
2019-03-30T21:21:59.065Z,53.00
2019-03-30T21:24:27.474Z,50.53
2019-03-30T21:26:55.870Z,53.00
2019-03-30T21:29:24.268Z,52.97
2019-03-30T21:31:52.671Z,52.30
2019-03-30T21:34:21.127Z,50.57
2019-03-30T21:36:49.519Z,49.00
2019-03-30T21:39:17.989Z,48.47
2019-03-30T21:41:46.391Z,51.63
2019-03-30T21:44:21.974Z,49.20
2019-03-30T21:46:44.923Z,51.73
2019-03-30T21:49:13.324Z,48.90
2019-03-30T21:51:41.804Z,50.47
2019-03-30T21:54:10.266Z,51.27
2019-03-30T21:56:38.684Z,51.53
2019-03-30T21:59:07.165Z,51.77
2019-03-30T22:01:35.564Z,49.37
2019-03-30T22:04:03.962Z,49.40
2019-03-30T22:06:32.396Z,49.00
2019-03-30T22:09:00.796Z,49.37
2019-03-30T22:11:29.239Z,48.13
2019-03-30T22:13:57.972Z,46.67
2019-03-30T22:16:26.401Z,48.97
2019-03-30T22:18:54.810Z,49.23
2019-03-30T22:21:23.232Z,48.37
2019-03-30T22:23:51.626Z,49.30
2019-03-30T22:26:20.062Z,48.80
2019-03-30T22:28:48.458Z,49.03
2019-03-30T22:31:16.882Z,51.07
2019-03-30T22:33:45.280Z,48.27
2019-03-30T22:36:13.700Z,49.00
2019-03-30T22:38:42.100Z,48.00
2019-03-30T22:41:10.522Z,46.67
2019-03-30T22:43:38.930Z,46.13
2019-03-30T22:46:07.812Z,43.17
2019-03-30T22:48:36.347Z,44.47
2019-03-30T22:51:04.850Z,43.83
2019-03-30T22:53:33.256Z,43.90
2019-03-30T22:56:01.698Z,42.43
2019-03-30T22:58:30.096Z,40.80
2019-03-30T23:01:00.188Z,41.47
2019-03-30T23:03:28.586Z,39.27
2019-03-30T23:05:57.058Z,39.40
2019-03-30T23:08:25.461Z,40.03
2019-03-30T23:10:53.870Z,37.70
2019-03-30T23:13:22.276Z,38.87
2019-03-30T23:15:50.682Z,38.27
2019-03-30T23:18:19.107Z,39.17
2019-03-30T23:20:47.503Z,39.97
2019-03-30T23:23:15.930Z,37.70
2019-03-30T23:25:44.332Z,37.87
2019-03-30T23:28:12.768Z,36.73
2019-03-30T23:30:53.440Z,37.57
2019-03-30T23:33:11.425Z,36.73
2019-03-30T23:35:38.953Z,34.50
2019-03-30T23:38:07.362Z,35.37
2019-03-30T23:40:35.754Z,36.50
2019-03-30T23:43:04.158Z,37.23
2019-03-30T23:45:32.618Z,35.60
2019-03-30T23:48:01.023Z,34.90
2019-03-30T23:50:29.419Z,35.07
2019-03-30T23:52:57.828Z,37.07
2019-03-30T23:55:26.229Z,35.57
2019-03-30T23:57:54.634Z,35.47
